Time;durP1;ratioP1;P1;durP2;ratioP2;P2;SDS_P1;SDS_P2;PMS_P1;PMS_P2;Temp;Humidity;BMP_temperature;BMP_pressure;BME280_temperature;BME280_humidity;BME280_pressure;Samples;Min_cycle;Max_cycle;Signal;HPM_P1;HPM_P2
2023/02/24 00:00:29;;;;;;;0.50;0.50;;;;;;;7.51;100.00;96421.44;29396;266;63004;-62
2023/02/24 00:00:54;;;;;;;0.50;0.50;;;;;;;7.54;100.00;96420.84;29418;202;63016;-61
2023/02/24 00:01:27;;;;;;;0.50;0.50;;;;;;;7.54;100.00;96426.25;29396;303;63004;-71
2023/02/24 00:02:04;;;;;;;0.50;0.50;;;;;;;7.54;100.00;96420.84;29395;204;64013;-61
2023/02/24 00:02:36;;;;;;;0.50;0.50;;;;;;;7.54;100.00;96418.16;29396;204;63009;-62
2023/02/24 00:03:09;;;;;;;0.50;0.50;;;;;;;7.53;100.00;96420.06;29395;314;64014;-63
2023/02/24 00:03:43;;;;;;;0.50;0.50;;;;;;;7.52;100.00;96423.03;29396;221;63005;-62
2023/02/24 00:04:15;;;;;;;0.50;0.50;;;;;;;7.52;100.00;96423.03;29396;246;63024;-68
2023/02/24 00:05:58;;;;;;;0.50;0.50;;;;;;;7.52;100.00;96423.03;87952;196;137000;-63
2023/02/24 00:06:35;;;;;;;0.50;0.50;;;;;;;7.51;100.00;96426.81;29394;308;64009;-69
2023/02/24 00:07:09;;;;;;;0.50;0.50;;;;;;;7.50;100.00;96425.22;29395;224;63005;-62
2023/02/24 00:07:40;;;;;;;0.50;0.50;;;;;;;7.49;100.00;96424.41;29394;205;64013;-61
2023/02/24 00:08:11;;;;;;;0.50;0.50;;;;;;;7.49;100.00;96424.41;29395;232;63005;-61
2023/02/24 00:08:43;;;;;;;0.50;0.50;;;;;;;7.50;100.00;96425.22;29395;218;63009;-61
2023/02/24 00:09:18;;;;;;;0.50;0.50;;;;;;;7.51;100.00;96432.22;29395;228;63005;-61
2023/02/24 00:09:49;;;;;;;0.50;0.50;;;;;;;7.50;100.00;96425.22;29395;214;63009;-61
2023/02/24 00:10:21;;;;;;;0.50;0.50;;;;;;;7.51;100.00;96426.81;29394;211;64009;-60
2023/02/24 00:10:52;;;;;;;0.50;0.50;;;;;;;7.50;100.00;96419.81;29395;204;63009;-61
2023/02/24 00:11:23;;;;;;;0.50;0.50;;;;;;;7.50;100.00;96425.22;29395;277;63004;-61
2023/02/24 00:12:01;;;;;;;0.50;0.50;;;;;;;7.49;100.00;96424.41;29395;206;63008;-61
2023/02/24 00:12:32;;;;;;;0.50;0.50;;;;;;;7.51;100.00;96426.81;29395;245;63004;-62
2023/02/24 00:13:03;;;;;;;0.50;0.50;;;;;;;7.50;100.00;96425.22;29395;213;63009;-62
2023/02/24 00:13:35;;;;;;;0.50;0.50;;;;;;;7.50;100.00;96426.03;29395;228;63005;-61
2023/02/24 00:14:08;;;;;;;0.50;0.50;;;;;;;7.50;100.00;96419.81;29395;197;63009;-60
2023/02/24 00:14:42;;;;;;;0.50;0.50;;;;;;;7.50;100.00;96425.22;29395;254;63005;-62
2023/02/24 00:15:15;;;;;;;0.50;0.50;;;;;;;7.51;100.00;96426.81;29395;259;63009;-62
2023/02/24 00:15:56;;;;;;;0.50;0.50;;;;;;;7.50;100.00;96422.53;29394;304;64009;-60
2023/02/24 00:16:27;;;;;;;;;;;;;;;7.50;100.00;96422.53;29996;983;6004;-61
2023/02/24 00:16:59;;;;;;;0.50;0.50;;;;;;;7.51;100.00;96421.44;29422;312;63009;-62
2023/02/24 00:17:30;;;;;;;0.45;0.45;;;;;;;7.53;100.00;96424.66;29395;236;63004;-62
2023/02/24 00:18:05;;;;;;;0.50;0.50;;;;;;;7.52;100.00;96417.63;29395;234;63009;-62
2023/02/24 00:18:37;;;;;;;0.50;0.50;;;;;;;7.52;100.00;96423.84;29395;233;63017;-61
2023/02/24 00:19:10;;;;;;;0.50;0.50;;;;;;;7.54;100.00;96420.84;29394;307;64008;-62
2023/02/24 00:19:41;;;;;;;0.60;0.60;;;;;;;7.53;100.00;96419.25;29394;234;64009;-62
2023/02/24 00:20:13;;;;;;;0.50;0.50;;;;;;;7.53;100.00;96425.47;29395;216;63009;-62
2023/02/24 00:20:44;;;;;;;0.50;0.50;;;;;;;7.53;100.00;96430.06;29395;208;63005;-62
2023/02/24 00:21:16;;;;;;;0.50;0.50;;;;;;;7.53;100.00;96420.06;29395;225;63009;-62
2023/02/24 00:21:48;;;;;;;0.50;0.50;;;;;;;7.54;100.00;96428.97;29395;204;63005;-62
2023/02/24 00:22:19;;;;;;;0.50;0.50;;;;;;;7.54;100.00;96420.84;29395;262;63019;-61
2023/02/24 00:22:51;;;;;;;0.50;0.50;;;;;;;7.55;100.00;96422.47;29395;236;63010;-61
2023/02/24 00:23:22;;;;;;;0.50;0.50;;;;;;;7.55;100.00;96425.16;29395;253;63009;-61
2023/02/24 00:23:54;;;;;;;0.50;0.50;;;;;;;7.55;100.00;96425.16;29395;197;63016;-61
2023/02/24 00:24:26;;;;;;;0.50;0.50;;;;;;;7.55;100.00;96428.69;29394;199;64013;-62
2023/02/24 00:25:01;;;;;;;0.50;0.50;;;;;;;7.55;100.00;96427.88;29394;227;64009;-62
2023/02/24 00:25:32;;;;;;;0.50;0.50;;;;;;;7.56;100.00;96426.78;29395;247;63016;-62
2023/02/24 00:26:05;;;;;;;0.50;0.50;;;;;;;7.55;100.00;96425.97;29394;204;64009;-62
2023/02/24 00:26:37;;;;;;;0.50;0.50;;;;;;;7.55;100.00;96423.28;29395;326;63008;-63
2023/02/24 00:27:11;;;;;;;0.50;0.50;;;;;;;7.56;100.00;96429.47;29395;197;63010;-60
2023/02/24 00:27:42;;;;;;;0.50;0.50;;;;;;;7.57;100.00;96423.00;29395;333;63009;-61
2023/02/24 00:28:14;;;;;;;0.50;0.50;;;;;;;7.57;100.00;96420.28;29395;202;63005;-61
2023/02/24 00:28:46;;;;;;;0.50;0.50;;;;;;;7.59;100.00;96423.53;29395;318;63009;-62
2023/02/24 00:29:18;;;;;;;0.50;0.50;;;;;;;7.61;100.00;96421.34;29395;370;63005;-64
2023/02/24 00:29:49;;;;;;;0.50;0.50;;;;;;;7.65;100.00;96417.75;29395;341;63009;-62
2023/02/24 00:30:22;;;;;;;0.50;0.50;;;;;;;7.69;100.00;96423.41;29395;222;63005;-61
2023/02/24 00:30:57;;;;;;;0.50;0.50;;;;;;;7.68;100.00;96419.09;29394;235;64013;-62
2023/02/24 00:31:29;;;;;;;0.50;0.50;;;;;;;7.67;100.00;96420.16;29395;302;63004;-62
2023/02/24 00:32:05;;;;;;;0.50;0.50;;;;;;;7.70;100.00;96417.72;29395;245;63009;-62
2023/02/24 00:32:36;;;;;;;0.50;0.50;;;;;;;7.70;100.00;96425.00;29395;240;63004;-61
2023/02/24 00:33:08;;;;;;;0.50;0.50;;;;;;;7.73;100.00;96414.44;29395;199;63009;-60
2023/02/24 00:33:41;;;;;;;0.50;0.50;;;;;;;7.77;100.00;96414.69;29395;211;63004;-62
2023/02/24 00:34:13;;;;;;;0.50;0.50;;;;;;;7.80;100.00;96411.41;29395;224;63022;-62
2023/02/24 00:34:47;;;;;;;0.50;0.50;;;;;;;7.81;100.00;96410.31;29394;216;64009;-61
2023/02/24 00:35:19;;;;;;;0.50;0.50;;;;;;;7.84;100.00;96409.75;29395;316;63005;-62
2023/02/24 00:35:50;;;;;;;0.50;0.50;;;;;;;7.90;99.41;96414.00;29395;308;63005;-63
2023/02/24 00:36:22;;;;;;;0.50;0.50;;;;;;;7.91;99.03;96410.22;29395;227;63009;-61
2023/02/24 00:36:53;;;;;;;0.50;0.50;;;;;;;7.93;98.49;96408.03;29395;197;63000;-65
2023/02/24 00:37:28;;;;;;;0.50;0.50;;;;;;;7.97;98.20;96402.84;29395;242;63020;-64
2023/02/24 00:37:59;;;;;;;0.50;0.50;;;;;;;8.03;98.01;96413.28;29394;196;64009;-62
2023/02/24 00:38:34;;;;;;;0.50;0.50;;;;;;;8.01;97.76;96415.47;29395;334;63009;-61
2023/02/24 00:39:08;;;;;;;0.50;0.50;;;;;;;7.96;98.07;96410.16;29395;220;63004;-62
2023/02/24 00:39:40;;;;;;;0.40;0.40;;;;;;;7.93;97.80;96408.03;29395;221;63009;-61
2023/02/24 00:40:15;;;;;;;0.50;0.50;;;;;;;7.91;97.74;96410.22;29395;204;63004;-64
2023/02/24 00:40:47;;;;;;;0.50;0.50;;;;;;;7.91;97.98;96406.72;29394;208;64013;-61
2023/02/24 00:41:21;;;;;;;0.50;0.50;;;;;;;7.89;98.36;96401.59;29395;275;63004;-61
2023/02/24 00:41:54;;;;;;;0.50;0.50;;;;;;;7.87;98.34;96405.66;29395;245;63008;-62
2023/02/24 00:42:28;;;;;;;0.50;0.50;;;;;;;7.84;98.51;96404.34;29395;201;63005;-69
2023/02/24 00:42:59;;;;;;;0.77;0.77;;;;;;;7.84;98.62;96409.75;29395;240;63009;-62
2023/02/24 00:43:35;;;;;;;0.50;0.50;;;;;;;7.85;98.89;96399.75;29395;234;63005;-62
2023/02/24 00:44:09;;;;;;;0.50;0.50;;;;;;;7.83;98.97;96416.25;29394;247;64013;-61
2023/02/24 00:44:45;;;;;;;0.50;0.50;;;;;;;7.81;99.08;96406.81;29395;223;63005;-61
2023/02/24 00:45:16;;;;;;;0.50;0.50;;;;;;;7.80;99.13;96402.50;29395;325;63009;-62
2023/02/24 00:45:50;;;;;;;0.50;0.50;;;;;;;7.78;99.05;96402.78;29395;199;63005;-61
2023/02/24 00:46:24;;;;;;;0.50;0.50;;;;;;;7.78;99.46;96399.28;29394;313;64013;-61
2023/02/24 00:46:56;;;;;;;0.50;0.50;;;;;;;7.76;99.71;96407.66;29395;202;63004;-61
2023/02/24 00:47:27;;;;;;;0.50;0.50;;;;;;;7.74;99.65;96394.44;29394;213;64013;-61
2023/02/24 00:47:58;;;;;;;0.50;0.50;;;;;;;7.74;99.62;96409.84;29395;220;63004;-62
2023/02/24 00:48:30;;;;;;;0.50;0.50;;;;;;;7.73;99.91;96408.22;29395;238;63017;-70
2023/02/24 00:49:04;;;;;;;0.50;0.50;;;;;;;7.72;99.84;96407.44;29395;249;63004;-61
2023/02/24 00:49:40;;;;;;;0.40;0.40;;;;;;;7.73;100.00;96408.22;29395;234;63013;-71
2023/02/24 00:50:12;;;;;;;0.50;0.50;;;;;;;7.72;100.00;96406.62;29395;216;63007;-62
2023/02/24 00:50:44;;;;;;;0.50;0.50;;;;;;;7.73;100.00;96402.84;29395;226;63013;-62
2023/02/24 00:51:22;;;;;;;0.50;0.50;;;;;;;7.78;100.00;96400.09;29395;250;63005;-62
2023/02/24 00:51:56;;;;;;;0.50;0.50;;;;;;;7.81;99.60;96399.50;29394;224;64013;-62
2023/02/24 00:52:28;;;;;;;0.50;0.50;;;;;;;7.81;99.42;96394.09;29395;246;63014;-60
2023/02/24 00:52:59;;;;;;;0.50;0.50;;;;;;;7.80;99.34;96403.31;29395;250;63009;-61
2023/02/24 00:53:30;;;;;;;0.50;0.50;;;;;;;7.78;99.49;96400.09;29395;206;63004;-61
2023/02/24 00:54:02;;;;;;;0.50;0.50;;;;;;;7.76;99.47;96396.84;29395;199;63024;-61
2023/02/24 00:54:36;;;;;;;0.50;0.50;;;;;;;7.79;99.27;96399.00;29395;214;63007;-61
2023/02/24 00:55:13;;;;;;;0.50;0.50;;;;;;;7.81;99.49;96399.50;29395;233;63009;-61
2023/02/24 00:55:44;;;;;;;0.50;0.50;;;;;;;7.81;99.55;96394.09;29394;252;64001;-60
2023/02/24 00:56:19;;;;;;;0.50;0.50;;;;;;;7.83;99.45;96391.94;29395;247;63008;-60
2023/02/24 00:56:50;;;;;;;0.50;0.50;;;;;;;7.82;99.20;96394.91;29395;206;63006;-62
2023/02/24 00:57:21;;;;;;;0.50;0.50;;;;;;;7.81;99.34;96394.09;29395;338;63009;-62
2023/02/24 00:57:53;;;;;;;0.50;0.50;;;;;;;7.83;99.30;96391.94;29395;206;63009;-62
2023/02/24 00:58:28;;;;;;;0.50;0.50;;;;;;;7.84;99.52;96398.94;29395;198;63009;-62
2023/02/24 00:59:01;;;;;;;0.50;0.50;;;;;;;7.82;99.60;96397.63;29395;206;63016;-61
2023/02/24 00:59:33;;;;;;;0.50;0.50;;;;;;;7.78;99.47;96394.69;29394;221;64013;-61
2023/02/24 01:00:11;;;;;;;0.50;0.50;;;;;;;7.76;99.33;96394.16;29395;324;63005;-62
2023/02/24 01:00:46;;;;;;;0.50;0.50;;;;;;;7.78;99.88;96402.78;29395;210;63009;-62
2023/02/24 01:01:19;;;;;;;0.50;0.50;;;;;;;7.77;99.71;96393.06;29395;228;63004;-61
2023/02/24 01:01:53;;;;;;;0.50;0.50;;;;;;;7.77;99.87;96393.06;29394;255;64013;-62
2023/02/24 01:02:25;;;;;;;0.60;0.60;;;;;;;7.80;99.77;96397.09;29395;260;63004;-62
2023/02/24 01:02:58;;;;;;;0.50;0.50;;;;;;;7.81;99.71;96396.00;29395;253;63015;-62
2023/02/24 01:03:31;;;;;;;0.50;0.50;;;;;;;7.80;99.15;96397.09;29395;203;63007;-63
2023/02/24 01:04:05;;;;;;;0.50;0.50;;;;;;;7.78;99.56;96405.47;29395;221;63009;-61
2023/02/24 01:04:36;;;;;;;0.50;0.50;;;;;;;7.73;99.96;96386.63;29395;265;63018;-61
2023/02/24 01:05:08;;;;;;;0.50;0.50;;;;;;;7.80;99.66;96389.78;29394;263;64014;-61
2023/02/24 01:05:39;;;;;;;0.50;0.50;;;;;;;7.81;99.63;96396.81;29395;213;63005;-61
2023/02/24 01:06:12;;;;;;;0.50;0.50;;;;;;;7.81;99.93;96390.59;29395;244;63009;-62
2023/02/24 01:06:48;;;;;;;0.50;0.50;;;;;;;7.79;99.54;96390.88;29395;212;63016;-60
2023/02/24 01:07:19;;;;;;;0.50;0.50;;;;;;;7.78;99.71;96391.97;29395;297;63009;-62
2023/02/24 01:07:50;;;;;;;0.50;0.50;;;;;;;7.76;99.84;96391.47;29395;251;63005;-62
2023/02/24 01:08:22;;;;;;;0.50;0.50;;;;;;;7.78;99.87;96388.47;29395;205;63009;-61
2023/02/24 01:08:54;;;;;;;0.50;0.50;;;;;;;7.82;99.77;96392.22;29395;204;63004;-61
2023/02/24 01:09:30;;;;;;;0.50;0.50;;;;;;;7.82;99.59;96390.31;29394;264;64013;-62
2023/02/24 01:10:01;;;;;;;0.50;0.50;;;;;;;7.81;99.65;96388.72;29395;276;63004;-61
2023/02/24 01:10:33;;;;;;;0.50;0.50;;;;;;;7.80;99.49;96391.69;29395;208;63009;-60
2023/02/24 01:12:53;;;;;;;0.50;0.50;;;;;;;7.77;99.82;96379.56;29395;215;63011;-62
2023/02/24 01:13:24;;;;;;;0.50;0.50;;;;;;;7.75;100.00;96381.75;29395;205;63009;-61
2023/02/24 01:13:55;;;;;;;0.50;0.50;;;;;;;7.72;99.97;96380.41;29395;197;64009;-61
2023/02/24 01:14:31;;;;;;;0.50;0.50;;;;;;;7.71;100.00;96386.91;29395;223;63009;-61
2023/02/24 01:15:03;;;;;;;0.50;0.50;;;;;;;7.70;100.00;96377.19;29395;198;63005;-61
2023/02/24 01:15:35;;;;;;;0.50;0.50;;;;;;;7.69;100.00;96380.19;29395;212;63009;-61
2023/02/24 01:16:07;;;;;;;0.50;0.50;;;;;;;7.67;100.00;96376.97;29395;249;63004;-62
2023/02/24 01:16:40;;;;;;;0.50;0.50;;;;;;;7.67;100.00;96385.06;29395;225;63009;-61
2023/02/24 01:17:11;;;;;;;0.50;0.50;;;;;;;7.66;100.00;96380.75;29395;232;63004;-62
2023/02/24 01:17:43;;;;;;;0.50;0.50;;;;;;;7.66;100.00;96380.75;29394;223;64013;-62
2023/02/24 01:18:14;;;;;;;0.50;0.50;;;;;;;7.67;100.00;96374.25;29395;197;63008;-62
2023/02/24 01:18:46;;;;;;;0.50;0.50;;;;;;;7.71;100.00;96378.81;29395;219;63008;-70
2023/02/24 01:19:23;;;;;;;0.50;0.50;;;;;;;7.70;100.00;96376.41;29395;229;63005;-62
2023/02/24 01:19:59;;;;;;;0.50;0.50;;;;;;;7.74;100.00;96377.44;29395;208;63020;-66
2023/02/24 01:20:31;;;;;;;0.50;0.50;;;;;;;7.76;100.00;96369.84;29394;290;64000;-64
2023/02/24 01:21:04;;;;;;;0.50;0.50;;;;;;;7.78;99.96;96373.06;29395;254;63009;-62
2023/02/24 01:21:35;;;;;;;0.50;0.50;;;;;;;7.81;99.64;96377.09;29395;222;63005;-63
2023/02/24 01:22:08;;;;;;;0.50;0.50;;;;;;;7.79;99.86;96380.09;29395;227;63009;-62
2023/02/24 01:22:40;;;;;;;0.60;0.60;;;;;;;7.80;99.47;96376.28;29395;220;63005;-61
2023/02/24 01:23:11;;;;;;;0.50;0.50;;;;;;;7.81;99.70;96372.50;29395;257;63009;-62
2023/02/24 01:23:44;;;;;;;0.50;0.50;;;;;;;7.87;99.16;96382.16;29395;198;63004;-63
2023/02/24 01:24:16;;;;;;;0.50;0.50;;;;;;;7.89;98.81;96371.88;29395;212;63025;-61
2023/02/24 01:24:48;;;;;;;0.50;0.50;;;;;;;7.87;98.52;96382.16;29395;324;63004;-62
2023/02/24 01:25:21;;;;;;;0.50;0.50;;;;;;;7.84;99.00;96377.34;29394;196;64013;-68
2023/02/24 01:25:52;;;;;;;0.50;0.50;;;;;;;7.88;98.79;96375.66;29395;202;63004;-62
2023/02/24 01:26:25;;;;;;;0.50;0.50;;;;;;;7.89;98.57;96376.47;29395;236;63008;-62
2023/02/24 01:26:56;;;;;;;0.50;0.50;;;;;;;7.87;98.65;96379.47;29395;373;63005;-61
2023/02/24 01:27:28;;;;;;;1.67;1.60;;;;;;;7.88;98.90;96372.97;29395;231;63018;-62
2023/02/24 01:27:59;;;;;;;0.60;0.60;;;;;;;7.87;98.73;96382.16;29395;200;63005;-62
2023/02/24 01:28:30;;;;;;;0.50;0.50;;;;;;;7.85;99.15;96373.53;29395;252;63009;-62
2023/02/24 01:29:03;;;;;;;0.50;0.50;;;;;;;7.84;99.18;96381.94;29395;196;63005;-62
2023/02/24 01:29:38;;;;;;;0.50;0.50;;;;;;;7.83;99.20;96378.41;29395;295;63012;-61
2023/02/24 01:30:14;;;;;;;0.47;0.47;;;;;;;7.81;98.96;96372.50;29395;260;63005;-62
2023/02/24 01:30:46;;;;;;;0.40;0.40;;;;;;;7.79;99.25;96374.69;29394;291;64013;-62
2023/02/24 01:31:19;;;;;;;0.50;0.50;;;;;;;7.76;99.43;96375.25;29395;199;63004;-62
2023/02/24 01:31:51;;;;;;;0.50;0.50;;;;;;;7.73;99.74;96370.44;29395;266;63009;-60
2023/02/24 01:32:24;;;;;;;0.43;0.43;;;;;;;7.70;100.00;96368.28;29395;210;63004;-61
2023/02/24 01:32:56;;;;;;;0.50;0.50;;;;;;;7.66;100.00;96370.75;29395;216;63009;-62
2023/02/24 01:33:28;;;;;;;0.50;0.50;;;;;;;7.65;100.00;96363.75;29395;212;63004;-60
2023/02/24 01:34:04;;;;;;;0.50;0.50;;;;;;;7.65;100.00;96371.06;29395;206;63008;-62
2023/02/24 01:34:36;;;;;;;0.50;0.50;;;;;;;7.69;100.00;96374.78;29395;214;63005;-62
2023/02/24 01:35:08;;;;;;;0.60;0.60;;;;;;;7.68;100.00;96368.59;29395;208;63009;-62
2023/02/24 01:35:40;;;;;;;0.50;0.50;;;;;;;7.72;100.00;96368.81;29395;198;63005;-62
2023/02/24 01:36:24;;;;;;;0.50;0.50;;;;;;;7.76;100.00;96369.06;29394;202;64013;-61
2023/02/24 01:36:56;;;;;;;0.50;0.50;;;;;;;7.79;100.00;96366.59;29395;203;63005;-65
2023/02/24 01:37:27;;;;;;;1.05;1.05;;;;;;;7.87;99.23;96368.66;29395;209;63009;-63
2023/02/24 01:38:00;;;;;;;0.50;0.50;;;;;;;7.88;99.01;96367.56;29395;216;63005;-61
2023/02/24 01:38:31;;;;;;;0.50;0.50;;;;;;;7.88;99.04;96367.56;29395;223;63009;-62
2023/02/24 01:39:05;;;;;;;0.50;0.50;;;;;;;7.88;98.88;96364.87;29395;202;63004;-62
2023/02/24 01:39:38;;;;;;;0.50;0.50;;;;;;;7.84;98.95;96361.12;29395;202;63009;-61
2023/02/24 01:40:19;;;;;;;0.50;0.50;;;;;;;7.81;98.56;96366.28;29395;215;63004;-64
2023/02/24 01:40:58;;;;;;;0.50;0.50;;;;;;;7.87;99.30;96368.66;29395;248;63009;-62
2023/02/24 01:41:30;;;;;;;0.60;0.60;;;;;;;7.87;98.87;96365.94;29394;204;64008;-61
2023/02/24 01:42:05;;;;;;;0.80;0.80;;;;;;;7.86;98.96;96358.94;29395;228;63009;-62
2023/02/24 01:42:42;;;;;;;0.50;0.50;;;;;;;7.83;98.94;96358.72;29395;305;63005;-61
2023/02/24 01:43:13;;;;;;;0.50;0.50;;;;;;;7.77;99.30;96362.56;29395;218;63009;-60
2023/02/24 01:43:57;;;;;;;0.70;0.70;;;;;;;7.70;99.69;96354.78;29394;226;64009;-62
2023/02/24 01:44:58;;;;;;;0.50;0.50;;;;;;;7.62;100.00;96360.84;29395;328;63009;-61
2023/02/24 01:45:29;;;;;;;0.50;0.50;;;;;;;7.57;100.00;96356.31;29394;228;64009;-61
2023/02/24 01:46:01;;;;;;;0.50;0.50;;;;;;;7.60;100.00;96354.94;29394;197;64013;-62
2023/02/24 01:46:34;;;;;;;0.50;0.50;;;;;;;7.60;100.00;96360.31;29394;247;64009;-62
2023/02/24 01:47:05;;;;;;;0.50;0.50;;;;;;;7.64;100.00;96355.94;29395;222;63009;-62
2023/02/24 01:47:37;;;;;;;1.02;1.02;;;;;;;7.66;100.00;96359.16;29395;246;63000;-62
2023/02/24 01:48:10;;;;;;;0.50;0.50;;;;;;;7.67;100.00;96361.56;29395;211;63009;-61
2023/02/24 01:48:42;;;;;;;0.50;0.50;;;;;;;7.68;100.00;96357.78;29395;296;63008;-61
2023/02/24 01:49:28;;;;;;;0.50;0.50;;;;;;;7.67;100.00;96358.06;29395;196;63026;-62
2023/02/24 01:50:01;;;;;;;0.50;0.50;;;;;;;7.69;100.00;96358.59;29395;277;63005;-61
2023/02/24 01:50:35;;;;;;;0.50;0.50;;;;;;;7.72;100.00;96358.00;29395;227;63009;-65
2023/02/24 01:51:07;;;;;;;2.00;1.80;;;;;;;7.78;100.00;96356.06;29394;196;64009;-67
2023/02/24 01:52:09;;;;;;;0.70;0.70;;;;;;;7.85;99.43;96354.62;29395;255;63015;-66
2023/02/24 01:52:43;;;;;;;1.02;1.02;;;;;;;7.88;99.20;96354.06;29417;272;63012;-64
2023/02/24 01:53:14;;;;;;;0.77;0.77;;;;;;;7.94;98.93;96355.63;29395;205;63009;-70
2023/02/24 01:53:46;;;;;;;16.85;10.73;;;;;;;7.96;98.04;96348.03;29386;219;65004;-62
2023/02/24 01:54:22;;;;;;;0.60;0.60;;;;;;;7.95;98.17;96357.22;29395;220;63009;-63
2023/02/24 01:55:12;;;;;;;0.77;0.77;;;;;;;7.97;98.02;96355.00;29395;223;63004;-65
2023/02/24 01:55:48;;;;;;;0.50;0.50;;;;;;;7.99;97.86;96357.41;29395;228;63009;-64
2023/02/24 01:56:20;;;;;;;0.50;0.50;;;;;;;7.96;98.05;96358.03;29394;211;64008;-66
2023/02/24 01:56:56;;;;;;;0.70;0.70;;;;;;;7.93;98.08;96351.31;29395;252;63009;-67
2023/02/24 01:57:31;;;;;;;0.80;0.80;;;;;;;7.92;98.07;96355.09;29394;209;64005;-62
2023/02/24 01:58:12;;;;;;;0.70;0.70;;;;;;;7.87;98.51;96354.34;29395;220;63009;-63
2023/02/24 01:58:43;;;;;;;0.50;0.50;;;;;;;7.88;98.30;96351.34;29395;198;63009;-63
2023/02/24 01:59:14;;;;;;;0.60;0.60;;;;;;;7.90;99.00;96359.19;29395;361;63009;-61
2023/02/24 01:59:48;;;;;;;0.50;0.50;;;;;;;7.84;98.59;96361.12;29395;216;63005;-61
2023/02/24 02:01:21;;;;;;;0.50;0.50;;;;;;;7.85;98.59;96359.22;29394;297;64009;-65
2023/02/24 02:02:03;;;;;;;0.57;0.57;;;;;;;7.82;98.75;96349.81;29395;218;63009;-62
2023/02/24 02:02:35;;;;;;;0.60;0.60;;;;;;;7.79;98.47;96350.37;29395;198;63015;-62
2023/02/24 02:03:25;;;;;;;1.45;1.40;;;;;;;7.81;98.70;96359.00;29394;199;64013;-64
2023/02/24 02:04:04;;;;;;;1.08;1.08;;;;;;;7.83;98.39;96354.12;29395;233;63004;-72
2023/02/24 02:04:44;;;;;;;1.23;1.23;;;;;;;7.84;98.31;96355.72;29395;225;63009;-64
2023/02/24 02:05:15;;;;;;;0.50;0.50;;;;;;;7.82;98.08;96357.91;29395;213;63005;-68
2023/02/24 02:05:47;;;;;;;0.55;0.55;;;;;;;7.82;97.99;96359.81;29395;234;63009;-63
2023/02/24 02:06:19;;;;;;;0.70;0.70;;;;;;;7.81;98.15;96350.09;29394;223;64009;-68
2023/02/24 02:06:51;;;;;;;4.60;1.12;;;;;;;7.85;97.90;96360.03;29395;198;63009;-67
2023/02/24 02:07:26;;;;;;;0.82;0.82;;;;;;;7.87;97.53;96354.34;29395;244;63005;-66
2023/02/24 02:07:59;;;;;;;0.60;0.60;;;;;;;7.82;97.96;96357.91;29395;274;63009;-63
2023/02/24 02:08:35;;;;;;;0.55;0.55;;;;;;;7.79;97.81;96358.47;29395;234;63004;-65
2023/02/24 02:09:06;;;;;;;0.50;0.50;;;;;;;7.75;98.57;96362.84;29395;225;63009;-63
2023/02/24 02:09:42;;;;;;;0.75;0.75;;;;;;;7.70;98.58;96360.19;29395;212;63012;-60
2023/02/24 02:10:13;;;;;;;0.55;0.55;;;;;;;7.69;98.99;96358.59;29395;221;63014;-68
2023/02/24 02:10:45;;;;;;;1.25;1.25;;;;;;;7.66;98.94;96353.75;29394;250;64008;-64
2023/02/24 02:11:19;;;;;;;0.50;0.50;;;;;;;7.66;99.00;96353.75;29395;295;63009;-62
2023/02/24 02:11:50;;;;;;;1.27;1.27;;;;;;;7.62;98.82;96348.13;29395;223;63005;-62
2023/02/24 02:12:23;;;;;;;0.70;0.70;;;;;;;7.63;99.38;96348.94;29395;242;63009;-64
2023/02/24 02:12:55;;;;;;;0.50;0.50;;;;;;;7.58;98.86;96349.81;29395;242;63015;-62
2023/02/24 02:13:29;;;;;;;0.50;0.50;;;;;;;7.52;99.52;96347.44;29395;282;63012;-62
2023/02/24 02:14:05;;;;;;;0.50;0.50;;;;;;;7.48;99.66;96352.63;29395;245;63005;-61
2023/02/24 02:14:42;;;;;;;0.85;0.85;;;;;;;7.48;99.92;96343.72;29394;219;64013;-62
2023/02/24 02:15:18;;;;;;;0.50;0.50;;;;;;;7.45;100.00;96349.69;29395;205;63005;-61
2023/02/24 02:16:42;;;;;;;0.50;0.50;;;;;;;7.46;100.00;96348.59;29395;298;63009;-62
2023/02/24 02:17:55;;;;;;;0.50;0.50;;;;;;;7.48;100.00;96351.81;29394;294;64009;-62
2023/02/24 02:18:46;;;;;;;;;;;;;;;7.46;100.00;96344.00;29996;983;6004;-64
2023/02/24 02:20:26;;;;;;;0.60;0.60;;;;;;;7.42;100.00;96347.56;29400;207;63009;-63
2023/02/24 02:21:48;;;;;;;0.50;0.50;;;;;;;7.36;100.00;96347.59;29395;254;63005;-63
2023/02/24 02:22:54;;;;;;;0.50;0.50;;;;;;;7.29;100.00;96344.41;29394;218;64004;-63
2023/02/24 02:24:17;;;;;;;0.50;0.50;;;;;;;7.24;100.00;96341.00;29395;280;63004;-62
2023/02/24 02:24:56;;;;;;;0.50;0.50;;;;;;;7.24;100.00;96347.19;29395;220;63009;-62
2023/02/24 02:26:17;;;;;;;0.50;0.50;;;;;;;7.27;100.00;96335.84;29395;289;63004;-62
2023/02/24 02:27:40;;;;;;;0.50;0.50;;;;;;;7.24;100.00;96341.78;29395;300;63009;-61
2023/02/24 02:28:48;;;;;;;0.50;0.50;;;;;;;7.31;100.00;96339.53;29416;226;64009;-63
2023/02/24 02:29:52;;;;;;;0.60;0.60;;;;;;;7.34;100.00;96335.47;29395;222;63009;-62
2023/02/24 02:31:03;;;;;;;0.50;0.50;;;;;;;7.35;100.00;96329.78;29395;202;63004;-63
2023/02/24 02:32:33;;;;;;;0.50;0.50;;;;;;;7.33;100.00;96340.06;29395;197;63013;-63
2023/02/24 02:33:41;;;;;;;0.60;0.60;;;;;;;7.34;100.00;96325.47;29395;215;63004;-63
2023/02/24 02:35:05;;;;;;;0.50;0.50;;;;;;;7.29;100.00;96327.41;29394;250;64014;-64
2023/02/24 02:35:47;;;;;;;0.50;0.50;;;;;;;7.31;100.00;96328.75;29394;235;64009;-65
2023/02/24 02:36:56;;;;;;;0.50;0.50;;;;;;;7.32;100.00;96326.84;29395;246;63013;-63
2023/02/24 02:37:39;;;;;;;0.60;0.60;;;;;;;7.34;100.00;96324.69;29394;198;64009;-63
2023/02/24 02:38:25;;;;;;;0.50;0.50;;;;;;;7.30;100.00;96327.13;29395;196;63009;-63
2023/02/24 02:39:48;;;;;;;0.50;0.50;;;;;;;7.26;100.00;96326.13;29395;204;63004;-63
2023/02/24 02:40:36;;;;;;;0.60;0.60;;;;;;;7.22;100.00;96330.47;29418;207;63009;-62
2023/02/24 02:42:00;;;;;;;0.50;0.50;;;;;;;7.20;100.00;96334.56;29396;202;63004;-62
2023/02/24 02:43:03;;;;;;;0.50;0.50;;;;;;;7.17;100.00;96329.72;29395;293;64004;-63
2023/02/24 02:43:47;;;;;;;0.50;0.50;;;;;;;7.15;100.00;96327.31;29396;226;63005;-64
2023/02/24 02:44:54;;;;;;;0.50;0.50;;;;;;;7.14;100.00;96328.41;29396;229;63009;-63
2023/02/24 02:46:06;;;;;;;0.50;0.50;;;;;;;7.12;100.00;96322.47;29395;236;64009;-63
2023/02/24 02:47:00;;;;;;;0.60;0.60;;;;;;;7.10;100.00;96319.25;29418;238;63009;-63
2023/02/24 02:47:43;;;;;;;0.50;0.50;;;;;;;7.06;100.00;96312.81;29396;247;63004;-62
2023/02/24 02:48:26;;;;;;;0.50;0.50;;;;;;;7.09;100.00;96317.66;29396;212;63008;-63
2023/02/24 02:49:01;;;;;;;0.50;0.50;;;;;;;7.09;100.00;96323.03;29395;249;64009;-64
2023/02/24 02:49:42;;;;;;;0.50;0.50;;;;;;;7.09;100.00;96323.03;29396;205;63009;-61
2023/02/24 02:50:30;;;;;;;;;;;;;;;7.08;100.00;96316.03;29997;982;6000;-63
2023/02/24 02:51:10;;;;;;;0.50;0.50;;;;;;;7.07;100.00;96319.81;29401;202;63005;-68
2023/02/24 02:51:53;;;;;;;0.50;0.50;;;;;;;7.05;100.00;96316.59;29395;265;64013;-61
2023/02/24 02:52:35;;;;;;;0.60;0.60;;;;;;;7.05;100.00;96320.09;29396;199;63005;-61
2023/02/24 02:53:33;;;;;;;0.50;0.50;;;;;;;7.06;100.00;96320.91;29396;266;63025;-62
2023/02/24 02:54:32;;;;;;;0.50;0.50;;;;;;;7.06;100.00;96318.22;29396;295;63004;-67
2023/02/24 02:55:15;;;;;;;0.50;0.50;;;;;;;7.09;100.00;96316.84;29396;286;63009;-64
2023/02/24 02:55:58;;;;;;;0.50;0.50;;;;;;;7.11;100.00;96312.78;29396;196;63014;-62
2023/02/24 02:56:53;;;;;;;0.50;0.50;;;;;;;7.11;100.00;96307.38;29395;201;64014;-63
2023/02/24 02:57:29;;;;;;;0.50;0.50;;;;;;;7.10;100.00;96304.97;29395;259;64009;-61
2023/02/24 02:58:06;;;;;;;0.50;0.50;;;;;;;7.08;100.00;96305.25;29396;231;63009;-63
2023/02/24 02:58:41;;;;;;;0.50;0.50;;;;;;;7.08;100.00;96305.25;29396;219;63005;-62
2023/02/24 02:59:21;;;;;;;0.50;0.50;;;;;;;7.06;100.00;96312.81;29395;196;64013;-63
2023/02/24 03:00:20;;;;;;;0.50;0.50;;;;;;;7.05;100.00;96312.00;29396;266;63005;-64
2023/02/24 03:01:00;;;;;;;0.50;0.50;;;;;;;7.05;100.00;96305.81;29396;218;63009;-63
2023/02/24 03:01:38;;;;;;;0.60;0.60;;;;;;;7.04;100.00;96306.91;29440;198;63004;-62
2023/02/24 03:02:12;;;;;;;0.50;0.50;;;;;;;7.02;100.00;96300.97;29372;207;64013;-62
2023/02/24 03:02:49;;;;;;;0.50;0.50;;;;;;;7.02;100.00;96307.19;29396;311;63004;-63
2023/02/24 03:03:21;;;;;;;0.50;0.50;;;;;;;7.01;100.00;96305.56;29396;222;63008;-61
2023/02/24 03:03:57;;;;;;;0.50;0.50;;;;;;;6.99;100.00;96298.84;29396;250;63004;-62
2023/02/24 03:04:29;;;;;;;0.50;0.50;;;;;;;6.98;100.00;96300.75;29395;222;64014;-63